Time;durP1;ratioP1;P1;durP2;ratioP2;P2;SDS_P1;SDS_P2;PMS_P1;PMS_P2;Temp;Humidity;BMP_temperature;BMP_pressure;BME280_temperature;BME280_humidity;BME280_pressure;Samples;Min_cycle;Max_cycle;Signal;HPM_P1;HPM_P2
2023/07/29 00:01:36;;;;;;;2.33;1.30;;;17.00;57.00;;;;;;4953388;28;20181;-69
2023/07/29 00:04:02;;;;;;;3.40;1.43;;;17.10;56.50;;;;;;4953405;29;20951;-69
2023/07/29 00:06:27;;;;;;;3.37;1.70;;;17.10;55.20;;;;;;4953280;28;20432;-70
2023/07/29 00:08:53;;;;;;;6.03;1.73;;;17.20;54.90;;;;;;4953481;29;20974;-69
2023/07/29 00:11:19;;;;;;;2.50;1.33;;;17.20;53.60;;;;;;4951966;28;20206;-69
2023/07/29 00:13:44;;;;;;;2.00;1.30;;;17.30;53.80;;;;;;4953465;28;20260;-69
2023/07/29 00:16:10;;;;;;;3.47;1.30;;;17.30;53.60;;;;;;4956982;29;20548;-69
2023/07/29 00:18:35;;;;;;;2.63;1.67;;;17.30;53.40;;;;;;4957056;28;20576;-69
2023/07/29 00:21:01;;;;;;;2.20;1.20;;;17.40;53.00;;;;;;4957042;29;20186;-70
2023/07/29 00:23:27;;;;;;;3.23;1.20;;;17.40;52.60;;;;;;4956566;28;20747;-70
2023/07/29 00:25:52;;;;;;;4.70;1.17;;;17.40;52.00;;;;;;4956788;28;20269;-69
2023/07/29 00:28:18;;;;;;;1.80;1.20;;;17.50;51.90;;;;;;4956735;28;20664;-69
2023/07/29 00:30:43;;;;;;;2.37;1.23;;;17.50;51.10;;;;;;4955554;29;20212;-70
2023/07/29 00:33:09;;;;;;;2.00;1.27;;;17.50;51.20;;;;;;4956467;29;20217;-70
2023/07/29 00:35:35;;;;;;;5.43;1.63;;;17.50;50.80;;;;;;4956884;29;20244;-69
2023/07/29 00:38:00;;;;;;;2.53;1.20;;;17.60;50.50;;;;;;4956519;28;20321;-69
2023/07/29 00:40:28;;;;;;;2.90;1.43;;;17.60;50.60;;;;;;4955516;28;20178;-69
2023/07/29 00:42:54;;;;;;;6.20;1.67;;;17.60;50.30;;;;;;4955210;29;20228;-69
2023/07/29 00:45:19;;;;;;;3.53;1.43;;;17.60;51.00;;;;;;4956691;29;20421;-69
2023/07/29 00:47:45;;;;;;;2.63;1.57;;;17.60;50.70;;;;;;4956557;28;20185;-69
2023/07/29 00:50:13;;;;;;;3.10;1.20;;;17.70;50.00;;;;;;4956424;28;20221;-69
2023/07/29 00:52:38;;;;;;;2.67;2.10;;;17.70;48.70;;;;;;4955883;28;20556;-69
2023/07/29 00:55:06;;;;;;;2.10;1.40;;;17.80;48.30;;;;;;4955187;29;20509;-69
2023/07/29 00:57:32;;;;;;;3.00;1.53;;;17.90;48.50;;;;;;4956460;28;20182;-69
2023/07/29 00:59:58;;;;;;;2.30;1.10;;;17.90;47.40;;;;;;4956411;28;20449;-69
2023/07/29 01:02:23;;;;;;;2.10;1.47;;;17.90;47.30;;;;;;4956101;28;20496;-69
2023/07/29 01:04:57;;;;;;;2.50;1.63;;;17.90;46.80;;;;;;4956099;28;20205;-69
2023/07/29 01:07:28;;;;;;;3.40;2.07;;;17.90;47.70;;;;;;4954849;28;20236;-69
2023/07/29 01:10:17;;;;;;;1.90;1.10;;;18.00;46.40;;;;;;4956178;28;20409;-68
2023/07/29 01:12:54;;;;;;;2.90;1.80;;;18.00;46.10;;;;;;4970479;28;20900;-69
2023/07/29 01:15:45;;;;;;;1.87;1.30;;;17.90;47.10;;;;;;4995028;23;20500;-71
2023/07/29 01:18:23;;;;;;;1.93;1.33;;;17.90;47.90;;;;;;4974706;28;20932;-71
2023/07/29 01:20:52;;;;;;;3.67;1.70;;;18.00;47.30;;;;;;4975244;28;20413;-71
2023/07/29 01:23:24;;;;;;;2.20;1.73;;;18.00;44.90;;;;;;4974957;28;20452;-71
2023/07/29 01:25:49;;;;;;;3.00;1.63;;;18.00;44.00;;;;;;4975229;28;20456;-71
2023/07/29 01:28:15;;;;;;;2.00;1.60;;;18.00;44.40;;;;;;4974767;28;20440;-71
2023/07/29 01:30:44;;;;;;;2.60;1.40;;;18.00;45.00;;;;;;4974998;28;20264;-71
2023/07/29 01:33:26;;;;;;;2.53;1.63;;;18.00;45.20;;;;;;4974426;28;20208;-71
2023/07/29 01:36:01;;;;;;;2.40;1.70;;;18.10;43.90;;;;;;4974907;28;20512;-71
2023/07/29 01:38:36;;;;;;;3.00;1.43;;;18.10;44.00;;;;;;4974496;28;20933;-71
2023/07/29 01:41:06;;;;;;;5.20;2.17;;;18.20;43.90;;;;;;4975030;28;20415;-71
2023/07/29 01:43:32;;;;;;;2.30;1.53;;;18.20;43.40;;;;;;4974508;28;20451;-71
2023/07/29 01:45:58;;;;;;;3.60;2.00;;;18.20;43.30;;;;;;4974807;28;20408;-70
2023/07/29 01:48:24;;;;;;;3.27;1.90;;;18.10;43.20;;;;;;4973182;28;20953;-71
2023/07/29 01:50:50;;;;;;;3.67;2.50;;;18.10;43.00;;;;;;4974236;28;20200;-71
2023/07/29 01:53:15;;;;;;;2.80;1.80;;;18.20;42.00;;;;;;4974183;28;20257;-71
2023/07/29 01:55:42;;;;;;;3.20;2.40;;;18.20;41.60;;;;;;4974718;28;20219;-71
2023/07/29 01:58:07;;;;;;;4.63;2.23;;;18.10;42.00;;;;;;4974863;28;20209;-71
2023/07/29 02:00:36;;;;;;;3.13;1.43;;;18.00;43.30;;;;;;4974304;28;20447;-71
2023/07/29 02:03:04;;;;;;;3.30;1.73;;;18.00;43.30;;;;;;4974175;28;20683;-70
2023/07/29 02:05:30;;;;;;;4.10;1.70;;;18.00;44.50;;;;;;4974164;28;20436;-72
2023/07/29 02:07:55;;;;;;;2.67;1.50;;;17.90;43.80;;;;;;4974351;28;20914;-71
2023/07/29 02:10:21;;;;;;;3.13;2.17;;;17.90;44.70;;;;;;4974096;28;20658;-71
2023/07/29 02:12:46;;;;;;;2.03;1.43;;;17.80;45.10;;;;;;4973991;28;20284;-72
2023/07/29 02:15:12;;;;;;;3.03;1.70;;;17.70;45.40;;;;;;4974035;28;20673;-72
2023/07/29 02:17:37;;;;;;;2.93;1.70;;;17.60;43.90;;;;;;4973920;28;20563;-71
2023/07/29 02:20:04;;;;;;;3.30;2.43;;;17.50;45.30;;;;;;4974053;28;20205;-71
2023/07/29 02:22:29;;;;;;;2.90;2.43;;;17.50;46.80;;;;;;4973694;28;20185;-71
2023/07/29 02:24:55;;;;;;;3.00;1.90;;;17.40;46.90;;;;;;4974072;28;20794;-71
2023/07/29 02:27:21;;;;;;;2.40;1.67;;;17.40;46.80;;;;;;4973800;28;20197;-71
2023/07/29 02:29:46;;;;;;;3.10;2.77;;;17.30;47.70;;;;;;4973937;28;20264;-71
2023/07/29 02:32:12;;;;;;;2.70;2.00;;;17.30;47.80;;;;;;4973544;28;20205;-71
2023/07/29 02:34:37;;;;;;;3.17;1.80;;;17.30;47.80;;;;;;4973776;28;20194;-71
2023/07/29 02:37:03;;;;;;;2.30;1.90;;;17.30;47.80;;;;;;4973354;28;20232;-71
2023/07/29 02:39:29;;;;;;;3.13;2.30;;;17.20;47.80;;;;;;4972261;28;20185;-71
2023/07/29 02:41:55;;;;;;;3.90;2.63;;;17.10;49.20;;;;;;4973470;28;20457;-72
2023/07/29 02:44:21;;;;;;;3.43;2.47;;;17.10;50.50;;;;;;4973897;28;20305;-71
2023/07/29 02:46:47;;;;;;;3.53;2.13;;;17.10;51.30;;;;;;4973935;28;20496;-70
2023/07/29 02:49:12;;;;;;;3.80;2.37;;;17.10;51.30;;;;;;4973451;28;20185;-70
2023/07/29 02:51:38;;;;;;;2.80;2.23;;;17.20;52.30;;;;;;4973004;28;20638;-71
2023/07/29 02:54:03;;;;;;;5.70;2.00;;;17.30;50.60;;;;;;4973227;28;20201;-71
2023/07/29 02:56:30;;;;;;;2.70;1.70;;;17.40;50.30;;;;;;4973309;28;20271;-71
2023/07/29 02:58:56;;;;;;;2.70;2.23;;;17.40;50.30;;;;;;4973337;28;20169;-71
2023/07/29 03:01:24;;;;;;;3.43;1.90;;;17.50;49.20;;;;;;4971749;28;20891;-71
2023/07/29 03:03:50;;;;;;;2.77;2.17;;;17.50;49.30;;;;;;4973266;28;20634;-71
2023/07/29 03:06:16;;;;;;;6.17;2.37;;;17.60;48.30;;;;;;4972943;28;20524;-71
2023/07/29 03:08:41;;;;;;;3.73;2.10;;;17.60;46.70;;;;;;4973045;28;20188;-71
2023/07/29 03:11:10;;;;;;;3.00;2.40;;;17.70;43.30;;;;;;4973207;28;20296;-71
2023/07/29 03:13:36;;;;;;;2.43;1.93;;;17.70;40.90;;;;;;4972720;28;20698;-71
2023/07/29 03:16:13;;;;;;;3.90;2.30;;;17.70;39.60;;;;;;4973181;28;20832;-70
2023/07/29 03:18:40;;;;;;;3.23;1.70;;;17.70;40.40;;;;;;4972714;28;20427;-70
2023/07/29 03:21:06;;;;;;;3.60;2.30;;;17.80;38.80;;;;;;4972347;28;20435;-71
2023/07/29 03:23:33;;;;;;;2.40;1.73;;;17.90;39.40;;;;;;4972277;28;20495;-71
2023/07/29 03:26:00;;;;;;;2.53;2.20;;;17.90;38.60;;;;;;4971700;28;20417;-70
2023/07/29 03:28:27;;;;;;;2.90;1.93;;;17.90;38.90;;;;;;4972839;28;20964;-71
2023/07/29 03:30:57;;;;;;;3.60;2.43;;;18.00;39.60;;;;;;4971555;28;20832;-71
2023/07/29 03:33:22;;;;;;;3.17;2.57;;;17.90;40.70;;;;;;4970974;28;20425;-70
2023/07/29 03:35:48;;;;;;;3.40;2.60;;;17.80;41.50;;;;;;4972867;28;20417;-70
2023/07/29 03:38:14;;;;;;;3.30;2.23;;;17.80;42.40;;;;;;4972976;28;20882;-71
2023/07/29 03:40:40;;;;;;;3.10;2.80;;;17.70;43.10;;;;;;4972904;28;20419;-70
2023/07/29 03:43:06;;;;;;;5.47;3.60;;;17.70;44.00;;;;;;4972602;28;20196;-70
2023/07/29 03:45:33;;;;;;;4.90;3.80;;;17.70;44.90;;;;;;4971367;28;20436;-70
2023/07/29 03:47:58;;;;;;;7.33;2.97;;;17.70;45.40;;;;;;4972476;28;20524;-70
2023/07/29 03:50:24;;;;;;;4.67;2.63;;;17.80;45.90;;;;;;4975518;28;20563;-71
2023/07/29 03:52:50;;;;;;;3.23;2.90;;;17.70;46.90;;;;;;4976411;28;20606;-71
2023/07/29 03:55:16;;;;;;;5.50;3.20;;;17.70;47.70;;;;;;4976669;28;20505;-71
2023/07/29 03:57:41;;;;;;;5.30;3.23;;;17.70;47.70;;;;;;4976636;28;20419;-71
2023/07/29 04:00:08;;;;;;;4.47;2.93;;;17.70;47.40;;;;;;4976440;28;20181;-69
2023/07/29 04:02:37;;;;;;;6.13;3.60;;;17.80;47.10;;;;;;4976384;28;20643;-70
2023/07/29 04:05:03;;;;;;;11.03;3.30;;;17.80;47.40;;;;;;4976558;28;20468;-70
2023/07/29 04:07:29;;;;;;;3.00;2.20;;;17.70;46.80;;;;;;4976649;28;20417;-71
2023/07/29 04:09:54;;;;;;;3.40;2.57;;;17.70;48.20;;;;;;4976246;28;20440;-70
2023/07/29 04:12:21;;;;;;;3.50;2.70;;;17.70;48.20;;;;;;4976093;28;20574;-70
2023/07/29 04:14:47;;;;;;;3.07;2.20;;;17.80;47.10;;;;;;4976034;28;20212;-70
2023/07/29 04:17:12;;;;;;;4.10;3.00;;;17.80;46.30;;;;;;4976490;28;20420;-70
2023/07/29 04:19:38;;;;;;;3.67;2.57;;;17.80;46.70;;;;;;4976610;28;20173;-69
2023/07/29 04:22:04;;;;;;;3.20;2.50;;;17.90;45.60;;;;;;4975975;28;20208;-70
2023/07/29 04:24:29;;;;;;;2.40;2.10;;;17.90;46.50;;;;;;4976167;28;20201;-70
2023/07/29 04:26:55;;;;;;;3.60;2.70;;;17.90;45.00;;;;;;4976017;28;20188;-70
2023/07/29 04:29:22;;;;;;;2.70;1.73;;;17.90;45.70;;;;;;4976463;28;20185;-70
2023/07/29 04:31:48;;;;;;;2.80;2.37;;;18.00;45.00;;;;;;4975191;28;20222;-71
2023/07/29 04:34:14;;;;;;;3.87;2.97;;;18.10;45.30;;;;;;4976356;28;20439;-71
2023/07/29 04:36:39;;;;;;;3.70;2.00;;;18.10;43.40;;;;;;4976214;28;20425;-69
2023/07/29 04:39:09;;;;;;;3.27;2.20;;;18.20;43.50;;;;;;4974731;28;20191;-70
2023/07/29 04:41:34;;;;;;;2.70;1.90;;;18.30;42.50;;;;;;4976018;28;20183;-70
2023/07/29 04:44:00;;;;;;;2.40;1.70;;;18.50;40.70;;;;;;4975898;28;20937;-70
2023/07/29 04:46:25;;;;;;;2.60;1.83;;;18.70;39.70;;;;;;4975956;28;20189;-70
2023/07/29 04:48:51;;;;;;;6.70;1.83;;;18.90;38.70;;;;;;4974541;28;20188;-70
2023/07/29 04:51:16;;;;;;;2.80;1.80;;;19.10;36.50;;;;;;4974390;28;20264;-70
2023/07/29 04:53:42;;;;;;;3.30;2.10;;;19.20;36.90;;;;;;4975272;28;20205;-70
2023/07/29 04:56:07;;;;;;;2.13;1.23;;;19.30;34.80;;;;;;4975739;28;20241;-70
2023/07/29 04:58:35;;;;;;;3.03;1.53;;;19.40;34.00;;;;;;4974358;28;20181;-70
2023/07/29 05:01:02;;;;;;;3.30;2.33;;;19.40;33.00;;;;;;4975581;28;20174;-70
2023/07/29 05:03:27;;;;;;;3.47;1.90;;;19.50;30.80;;;;;;4974618;28;20783;-72
2023/07/29 05:05:55;;;;;;;3.60;1.80;;;19.50;30.50;;;;;;4975886;28;20421;-70
2023/07/29 05:08:21;;;;;;;2.97;1.60;;;19.60;31.00;;;;;;4975722;28;20546;-71
2023/07/29 05:10:50;;;;;;;2.20;1.43;;;19.60;31.10;;;;;;4975473;28;20428;-71
2023/07/29 05:13:16;;;;;;;3.23;2.00;;;19.70;30.80;;;;;;4975268;28;20177;-71
2023/07/29 05:15:41;;;;;;;5.27;2.73;;;19.50;30.00;;;;;;4975530;28;20417;-72
2023/07/29 05:18:07;;;;;;;3.80;2.17;;;19.00;33.30;;;;;;4974339;28;20557;-71
2023/07/29 05:20:32;;;;;;;2.53;1.33;;;18.60;32.20;;;;;;4974747;28;20264;-72
2023/07/29 05:22:58;;;;;;;2.80;1.60;;;18.50;34.20;;;;;;4974769;28;20730;-72
2023/07/29 05:25:23;;;;;;;2.07;1.27;;;18.40;35.50;;;;;;4975169;28;20199;-72
2023/07/29 05:27:49;;;;;;;2.10;1.17;;;18.50;35.30;;;;;;4974947;28;20177;-73
2023/07/29 05:30:14;;;;;;;2.43;1.60;;;18.50;34.80;;;;;;4975186;28;20240;-75
2023/07/29 05:32:40;;;;;;;2.30;1.40;;;18.50;35.70;;;;;;4974759;28;20307;-74
2023/07/29 05:35:06;;;;;;;1.80;1.33;;;18.60;35.70;;;;;;4973381;28;20201;-75
2023/07/29 05:37:32;;;;;;;5.73;1.67;;;18.70;34.40;;;;;;4975110;28;20170;-71
2023/07/29 05:39:57;;;;;;;2.50;1.33;;;18.70;35.30;;;;;;4975039;28;20448;-70
2023/07/29 05:42:23;;;;;;;5.20;1.47;;;18.80;34.10;;;;;;4974604;28;20176;-70
2023/07/29 05:44:48;;;;;;;2.90;1.60;;;18.90;33.60;;;;;;4974563;28;20572;-70
2023/07/29 05:47:14;;;;;;;2.70;1.30;;;18.90;34.00;;;;;;4974645;28;20655;-71
2023/07/29 05:49:39;;;;;;;2.30;1.70;;;19.10;33.80;;;;;;4973701;28;20177;-70
2023/07/29 05:52:05;;;;;;;2.90;1.70;;;19.60;31.70;;;;;;4974371;28;20197;-70
2023/07/29 05:54:31;;;;;;;3.90;2.07;;;20.20;28.60;;;;;;4974842;28;20212;-69
2023/07/29 05:56:56;;;;;;;6.53;1.43;;;20.30;26.40;;;;;;4974435;28;20463;-71
2023/07/29 05:59:22;;;;;;;2.60;1.00;;;20.60;25.60;;;;;;4973398;28;20185;-70
2023/07/29 06:01:47;;;;;;;5.60;1.60;;;20.80;25.00;;;;;;4974513;28;20177;-70
2023/07/29 06:04:13;;;;;;;2.57;1.40;;;20.70;23.60;;;;;;4974454;28;20201;-70
2023/07/29 06:06:39;;;;;;;2.73;1.67;;;20.80;24.10;;;;;;4974396;28;20185;-70
2023/07/29 06:09:04;;;;;;;2.60;1.50;;;21.00;23.00;;;;;;4974176;28;20184;-70
2023/07/29 06:11:30;;;;;;;2.17;1.23;;;21.70;23.00;;;;;;4972943;28;20213;-70
2023/07/29 06:13:55;;;;;;;4.47;3.30;;;23.70;19.80;;;;;;4974151;28;20212;-70
2023/07/29 06:16:21;;;;;;;2.43;1.83;;;25.50;11.30;;;;;;4974294;28;20300;-70
2023/07/29 06:18:46;;;;;;;2.17;1.47;;;26.80;5.40;;;;;;4974288;28;20201;-70
2023/07/29 06:21:16;;;;;;;5.20;1.63;;;27.10;2.80;;;;;;4974106;28;20756;-70
2023/07/29 06:23:43;;;;;;;2.40;1.50;;;25.80;5.40;;;;;;4974061;28;20288;-71
2023/07/29 06:26:08;;;;;;;2.80;1.47;;;25.10;6.10;;;;;;4974333;28;20444;-69
2023/07/29 06:28:34;;;;;;;1.73;1.20;;;24.50;8.20;;;;;;4974358;28;20444;-71
2023/07/29 06:31:00;;;;;;;3.03;1.00;;;23.90;10.90;;;;;;4974116;28;20604;-72
2023/07/29 06:33:25;;;;;;;5.80;2.73;;;23.90;9.60;;;;;;4973547;28;20190;-72
2023/07/29 06:35:51;;;;;;;3.80;1.87;;;23.80;10.20;;;;;;4974347;28;20204;-71
2023/07/29 06:38:21;;;;;;;4.43;1.37;;;23.70;11.20;;;;;;4974187;28;20177;-71
2023/07/29 06:40:50;;;;;;;2.37;1.90;;;23.60;12.70;;;;;;4974145;28;20227;-71
2023/07/29 06:43:16;;;;;;;2.60;1.23;;;23.90;11.80;;;;;;4973663;28;20429;-69
2023/07/29 06:45:42;;;;;;;5.80;1.53;;;24.40;9.90;;;;;;4973670;28;20452;-72
2023/07/29 06:48:07;;;;;;;2.73;1.43;;;25.00;7.90;;;;;;4973813;28;21184;-69
2023/07/29 06:50:33;;;;;;;2.20;1.30;;;25.60;6.80;;;;;;4973738;28;20775;-70
2023/07/29 06:52:59;;;;;;;2.63;1.80;;;26.10;5.50;;;;;;4973555;28;20212;-71
2023/07/29 06:55:24;;;;;;;2.33;1.00;;;26.00;3.80;;;;;;4974112;28;20237;-71
2023/07/29 06:57:50;;;;;;;3.83;1.83;;;25.40;6.00;;;;;;4969009;28;20245;-70
2023/07/29 07:00:15;;;;;;;4.50;1.70;;;24.60;7.60;;;;;;4954555;28;20185;-71
2023/07/29 07:02:43;;;;;;;3.77;2.27;;;23.90;10.30;;;;;;4954112;29;20186;-70
2023/07/29 07:05:09;;;;;;;3.70;1.90;;;23.40;12.70;;;;;;4954405;29;20206;-71
2023/07/29 07:07:35;;;;;;;2.37;1.47;;;22.50;16.20;;;;;;4956127;28;20448;-70
2023/07/29 07:10:00;;;;;;;2.50;1.60;;;22.00;18.80;;;;;;4971987;28;20197;-70
2023/07/29 07:12:26;;;;;;;4.17;1.60;;;21.30;23.70;;;;;;4972975;28;20209;-71
2023/07/29 07:14:52;;;;;;;2.50;1.47;;;20.90;27.00;;;;;;4973593;28;20573;-70
2023/07/29 07:17:18;;;;;;;4.53;1.90;;;20.60;29.70;;;;;;4973481;28;20635;-70
2023/07/29 07:19:43;;;;;;;6.13;1.87;;;20.50;32.00;;;;;;4971976;28;20177;-69
2023/07/29 07:22:09;;;;;;;3.20;1.87;;;20.30;33.70;;;;;;4972994;28;20439;-69
2023/07/29 07:24:35;;;;;;;2.87;2.03;;;20.30;34.80;;;;;;4973133;28;20226;-70
2023/07/29 07:27:00;;;;;;;2.97;1.90;;;20.30;34.90;;;;;;4973445;28;20193;-69
2023/07/29 07:29:26;;;;;;;4.90;1.83;;;20.50;35.00;;;;;;4973341;28;20208;-69
2023/07/29 07:31:52;;;;;;;7.83;2.30;;;20.60;33.30;;;;;;4972742;28;20209;-71
2023/07/29 07:34:19;;;;;;;5.07;2.27;;;20.90;31.90;;;;;;4972796;28;20615;-70
2023/07/29 07:36:45;;;;;;;4.13;2.23;;;20.90;29.30;;;;;;4973072;28;20496;-70
2023/07/29 07:39:10;;;;;;;3.20;2.40;;;21.00;28.50;;;;;;4972989;28;20512;-70
2023/07/29 07:41:36;;;;;;;3.50;2.40;;;21.20;29.80;;;;;;4972732;28;20217;-69
2023/07/29 07:44:02;;;;;;;4.20;2.60;;;21.50;27.30;;;;;;4972736;28;20197;-71
2023/07/29 07:46:28;;;;;;;5.50;2.20;;;21.70;26.40;;;;;;4972918;28;20223;-74
2023/07/29 07:48:54;;;;;;;3.87;1.97;;;21.90;24.50;;;;;;4972503;28;20608;-70
2023/07/29 07:51:20;;;;;;;3.23;1.83;;;21.70;23.70;;;;;;4972653;28;20550;-69
2023/07/29 07:53:45;;;;;;;8.73;2.43;;;21.60;24.40;;;;;;4972186;28;20292;-69
2023/07/29 07:56:11;;;;;;;2.80;2.20;;;21.70;24.00;;;;;;4972467;28;20218;-70
2023/07/29 07:58:37;;;;;;;5.27;1.70;;;21.70;24.00;;;;;;4972829;28;20181;-70
2023/07/29 08:01:07;;;;;;;3.43;1.30;;;21.50;23.20;;;;;;4971522;28;20554;-70
2023/07/29 08:03:34;;;;;;;2.23;1.50;;;21.50;24.20;;;;;;4972043;28;20452;-69
2023/07/29 08:05:59;;;;;;;3.27;2.20;;;21.60;23.70;;;;;;4972511;28;20436;-70
2023/07/29 08:08:26;;;;;;;3.30;1.87;;;21.60;22.90;;;;;;4972579;28;20420;-70
2023/07/29 08:10:56;;;;;;;2.53;1.40;;;21.70;23.50;;;;;;4972542;28;20608;-70
2023/07/29 08:13:23;;;;;;;2.60;1.63;;;21.70;23.50;;;;;;4970843;28;20467;-69
2023/07/29 08:15:50;;;;;;;2.40;1.53;;;21.50;22.50;;;;;;4972383;28;20762;-70
2023/07/29 08:18:16;;;;;;;4.40;1.43;;;21.50;24.10;;;;;;4972684;28;20444;-70
2023/07/29 08:20:55;;;;;;;5.90;1.80;;;21.50;24.90;;;;;;4971196;28;20479;-70
2023/07/29 08:23:21;;;;;;;2.40;1.40;;;21.40;25.20;;;;;;4970579;28;20439;-70
2023/07/29 08:25:56;;;;;;;3.30;1.97;;;21.60;25.90;;;;;;4972216;28;20448;-70
2023/07/29 08:28:22;;;;;;;3.67;1.70;;;21.60;25.30;;;;;;4972154;28;20829;-70
2023/07/29 08:30:48;;;;;;;2.63;1.77;;;21.70;25.00;;;;;;4972421;28;20491;-70
2023/07/29 08:33:14;;;;;;;5.03;1.90;;;21.90;25.60;;;;;;4971895;28;20564;-70
2023/07/29 08:35:40;;;;;;;2.50;1.60;;;22.00;26.00;;;;;;4974264;28;20256;-70
2023/07/29 08:38:06;;;;;;;2.80;1.70;;;22.20;25.00;;;;;;4975996;28;20970;-70
2023/07/29 08:40:34;;;;;;;3.00;1.60;;;21.70;24.90;;;;;;4976085;28;20203;-70
2023/07/29 08:43:04;;;;;;;5.20;1.73;;;21.60;26.30;;;;;;4976019;28;20441;-69
2023/07/29 08:45:34;;;;;;;3.20;1.70;;;21.50;27.00;;;;;;4975772;28;20953;-70
2023/07/29 08:48:04;;;;;;;1.97;1.37;;;21.30;29.20;;;;;;4975742;28;20502;-69
2023/07/29 08:50:32;;;;;;;3.00;1.93;;;21.40;29.30;;;;;;4976284;28;20417;-71
2023/07/29 08:52:59;;;;;;;2.60;1.80;;;21.10;30.20;;;;;;4975301;28;20472;-71
2023/07/29 08:55:25;;;;;;;4.30;2.57;;;21.00;32.00;;;;;;4975523;28;20958;-68
2023/07/29 08:57:51;;;;;;;3.57;2.50;;;20.70;33.70;;;;;;4975609;28;20421;-69
2023/07/29 09:00:17;;;;;;;4.10;2.20;;;20.60;35.80;;;;;;4975554;28;20251;-70
2023/07/29 09:02:43;;;;;;;5.03;1.90;;;20.90;34.40;;;;;;4975082;28;20918;-70
2023/07/29 09:05:09;;;;;;;3.30;1.70;;;21.40;31.80;;;;;;4975328;28;20231;-70
2023/07/29 09:07:36;;;;;;;3.70;1.90;;;22.00;28.20;;;;;;4975197;28;20189;-70
2023/07/29 09:10:01;;;;;;;3.37;1.97;;;23.30;25.00;;;;;;4975409;28;20704;-70
2023/07/29 09:12:27;;;;;;;2.57;1.83;;;26.30;14.70;;;;;;4975052;28;20478;-70
2023/07/29 09:14:54;;;;;;;2.30;1.83;;;28.10;6.60;;;;;;4974994;28;20217;-70
2023/07/29 09:17:21;;;;;;;3.40;2.40;;;28.30;3.40;;;;;;4975159;28;20560;-70
2023/07/29 09:19:50;;;;;;;3.47;1.73;;;27.70;4.10;;;;;;4974784;28;20429;-70
2023/07/29 09:22:27;;;;;;;2.83;1.73;;;27.40;4.30;;;;;;4974823;28;20429;-69
2023/07/29 09:24:53;;;;;;;2.20;1.60;;;27.00;5.00;;;;;;4955627;29;20448;-70
2023/07/29 09:27:31;;;;;;;3.47;1.67;;;26.90;7.90;;;;;;4955942;29;20449;-69
2023/07/29 09:29:57;;;;;;;3.03;1.90;;;26.90;4.90;;;;;;4955508;28;20417;-70
2023/07/29 09:32:24;;;;;;;3.53;1.70;;;26.90;5.00;;;;;;4965879;28;20555;-70
2023/07/29 09:34:51;;;;;;;2.67;2.13;;;26.80;5.30;;;;;;4974651;28;20448;-70
2023/07/29 09:37:26;;;;;;;3.30;1.90;;;26.90;5.40;;;;;;4974582;28;20934;-71
2023/07/29 09:39:51;;;;;;;3.60;2.50;;;27.10;4.80;;;;;;4974648;28;20478;-71
2023/07/29 09:42:21;;;;;;;3.90;2.40;;;26.80;4.40;;;;;;4974534;28;20413;-72
2023/07/29 09:44:48;;;;;;;2.60;1.90;;;26.80;8.10;;;;;;4973475;28;20635;-72
2023/07/29 09:47:21;;;;;;;3.40;1.77;;;26.60;5.80;;;;;;4973557;28;20753;-72
2023/07/29 09:49:47;;;;;;;2.30;2.03;;;26.40;7.70;;;;;;4974947;28;20428;-72
2023/07/29 09:52:24;;;;;;;2.50;1.80;;;26.50;9.50;;;;;;4974476;28;20463;-72
2023/07/29 09:54:49;;;;;;;2.90;2.17;;;26.30;6.60;;;;;;4969490;28;20452;-72
2023/07/29 09:57:18;;;;;;;3.00;2.17;;;26.00;6.40;;;;;;4955151;29;20417;-73
2023/07/29 09:59:52;;;;;;;2.87;2.07;;;25.80;6.00;;;;;;4973685;28;20220;-73
2023/07/29 10:02:21;;;;;;;4.67;2.33;;;25.60;6.30;;;;;;4974438;28;20405;-71
2023/07/29 10:04:47;;;;;;;3.17;2.00;;;25.50;7.00;;;;;;4974347;28;20496;-72
2023/07/29 10:07:17;;;;;;;3.53;2.20;;;26.00;9.10;;;;;;4974454;28;20475;-71
2023/07/29 10:09:45;;;;;;;3.27;2.00;;;25.80;5.00;;;;;;4974589;28;20452;-72
2023/07/29 10:12:11;;;;;;;3.30;2.23;;;26.00;5.20;;;;;;4972665;28;20527;-72
2023/07/29 10:14:38;;;;;;;2.93;2.17;;;26.40;7.10;;;;;;4974528;28;20939;-72
2023/07/29 10:17:05;;;;;;;3.93;2.50;;;26.80;3.70;;;;;;4974275;28;20639;-72
2023/07/29 10:19:31;;;;;;;2.70;2.10;;;27.10;2.80;;;;;;4972736;28;20509;-72
2023/07/29 10:22:02;;;;;;;2.60;2.20;;;26.80;2.10;;;;;;4975190;28;20451;-72
2023/07/29 10:24:33;;;;;;;3.50;2.43;;;26.40;1.30;;;;;;4974184;28;20992;-72
2023/07/29 10:27:00;;;;;;;2.90;2.33;;;26.60;2.50;;;;;;4974202;28;20810;-71
2023/07/29 10:29:33;;;;;;;4.00;2.70;;;26.50;1.00;;;;;;4974054;28;20429;-71
2023/07/29 10:32:03;;;;;;;2.40;2.10;;;26.10;2.20;;;;;;4973816;28;20452;-71
2023/07/29 10:34:30;;;;;;;3.20;2.60;;;26.30;1.30;;;;;;4973885;28;20452;-72
2023/07/29 10:36:56;;;;;;;3.13;2.70;;;26.40;1.00;;;;;;4974021;28;20833;-72
2023/07/29 10:39:24;;;;;;;3.53;2.70;;;26.40;1.00;;;;;;4973594;28;20425;-71
2023/07/29 10:42:00;;;;;;;3.03;2.67;;;26.50;1.00;;;;;;4972390;28;20504;-72
2023/07/29 10:44:41;;;;;;;2.90;2.13;;;26.90;1.00;;;;;;4973531;28;20448;-71
2023/07/29 10:47:18;;;;;;;2.97;2.17;;;27.30;1.00;;;;;;4974026;28;20420;-72
2023/07/29 10:49:45;;;;;;;9.00;3.50;;;27.50;1.00;;;;;;4972554;28;20433;-71
2023/07/29 10:52:18;;;;;;;3.20;2.63;;;27.40;1.00;;;;;;4973404;28;20960;-72
2023/07/29 10:54:45;;;;;;;2.60;2.07;;;27.10;1.00;;;;;;4973388;28;20946;-71
2023/07/29 10:57:15;;;;;;;2.90;2.30;;;27.00;1.00;;;;;;4973247;28;20429;-69
2023/07/29 10:59:41;;;;;;;3.30;3.00;;;27.30;1.00;;;;;;4973202;28;20416;-69
2023/07/29 11:02:19;;;;;;;3.00;2.33;;;27.10;1.00;;;;;;4973258;28;20443;-68
2023/07/29 11:04:51;;;;;;;2.53;2.33;;;27.20;1.00;;;;;;4972099;28;20479;-66
2023/07/29 11:07:16;;;;;;;4.27;3.13;;;27.10;1.00;;;;;;4971553;28;20448;-67
2023/07/29 11:10:19;;;;;;;3.40;3.10;;;27.40;1.00;;;;;;4973769;28;20510;-67
2023/07/29 11:12:52;;;;;;;4.03;3.17;;;27.80;1.00;;;;;;4968999;28;20220;-66
2023/07/29 11:15:26;;;;;;;3.27;2.50;;;27.60;1.00;;;;;;4972921;28;20835;-66
2023/07/29 11:18:00;;;;;;;3.03;2.73;;;27.70;1.00;;;;;;4973196;28;20794;-67
2023/07/29 11:20:30;;;;;;;3.50;3.20;;;27.50;1.00;;;;;;4973211;28;20460;-67
2023/07/29 11:22:58;;;;;;;3.10;2.80;;;27.50;1.00;;;;;;4973098;28;20432;-67
2023/07/29 11:25:26;;;;;;;3.30;3.00;;;28.00;1.00;;;;;;4971765;28;20456;-67
2023/07/29 11:27:54;;;;;;;3.50;3.20;;;28.10;1.00;;;;;;4956931;28;20958;-66
2023/07/29 11:30:20;;;;;;;3.30;3.00;;;28.20;1.00;;;;;;4970815;28;20837;-67
2023/07/29 11:32:46;;;;;;;3.40;3.10;;;28.10;1.00;;;;;;4971292;28;20468;-66
2023/07/29 11:35:17;;;;;;;4.20;3.77;;;28.00;1.00;;;;;;4972884;28;20201;-68
2023/07/29 11:37:47;;;;;;;3.50;3.20;;;27.00;1.00;;;;;;4971159;28;20440;-66
2023/07/29 11:40:17;;;;;;;3.23;2.93;;;27.30;1.00;;;;;;4972885;28;20476;-66
2023/07/29 11:42:43;;;;;;;3.00;2.70;;;27.00;1.00;;;;;;4972694;28;21010;-66
2023/07/29 11:45:09;;;;;;;3.67;2.93;;;26.50;1.00;;;;;;4972730;28;20867;-67
2023/07/29 11:47:38;;;;;;;3.03;2.70;;;26.50;1.00;;;;;;4972889;28;20803;-66
2023/07/29 11:50:05;;;;;;;3.30;3.00;;;26.30;1.00;;;;;;4972513;28;20515;-67
2023/07/29 11:52:35;;;;;;;3.10;2.80;;;26.10;1.00;;;;;;4972193;28;20500;-68
2023/07/29 11:55:03;;;;;;;2.87;2.00;;;26.30;1.00;;;;;;4972687;28;20432;-67
2023/07/29 11:57:34;;;;;;;3.50;2.63;;;26.00;1.00;;;;;;4972599;28;20416;-67
2023/07/29 12:00:03;;;;;;;3.20;2.90;;;26.10;1.00;;;;;;4972727;28;20508;-68
2023/07/29 12:02:29;;;;;;;3.03;2.67;;;26.20;1.00;;;;;;4971010;28;20441;-67
2023/07/29 12:04:57;;;;;;;2.60;2.40;;;26.30;1.00;;;;;;4972587;28;20448;-67
2023/07/29 12:07:25;;;;;;;2.87;2.57;;;26.40;1.00;;;;;;4972689;28;20174;-69
2023/07/29 12:09:51;;;;;;;2.90;2.60;;;26.60;1.00;;;;;;4972880;28;20425;-69
2023/07/29 12:12:18;;;;;;;2.90;2.70;;;26.60;1.00;;;;;;4975908;28;20830;-69
2023/07/29 12:14:46;;;;;;;3.10;2.80;;;26.20;1.00;;;;;;4975977;28;21047;-69
2023/07/29 12:17:12;;;;;;;2.40;2.20;;;26.40;1.00;;;;;;4976559;28;20796;-69
2023/07/29 12:19:39;;;;;;;3.23;2.40;;;26.40;1.00;;;;;;4976250;28;20424;-70
2023/07/29 12:22:06;;;;;;;2.93;2.73;;;26.40;1.00;;;;;;4976168;28;20189;-69
2023/07/29 12:24:35;;;;;;;3.07;2.67;;;26.40;1.00;;;;;;4976141;28;20447;-69
2023/07/29 12:27:00;;;;;;;3.90;1.90;;;26.90;1.00;;;;;;4976320;28;20427;-69
2023/07/29 12:29:27;;;;;;;2.97;2.70;;;26.80;1.00;;;;;;4976142;28;20428;-69
2023/07/29 12:32:01;;;;;;;3.10;2.80;;;26.80;1.00;;;;;;4973967;28;20216;-69
2023/07/29 12:34:28;;;;;;;2.77;2.57;;;27.20;1.00;;;;;;4975518;28;20753;-69
2023/07/29 12:36:56;;;;;;;3.20;2.63;;;27.30;1.00;;;;;;4976427;28;20447;-69
2023/07/29 12:39:23;;;;;;;2.90;2.60;;;27.50;1.00;;;;;;4976070;28;20413;-69
2023/07/29 12:41:51;;;;;;;3.40;3.10;;;27.20;1.00;;;;;;4975412;28;20425;-69
2023/07/29 12:44:17;;;;;;;3.30;2.83;;;26.90;1.00;;;;;;4975797;28;20527;-69
2023/07/29 12:46:42;;;;;;;3.10;2.80;;;27.30;1.00;;;;;;4976027;28;20792;-69
2023/07/29 12:49:08;;;;;;;3.13;2.70;;;27.80;1.00;;;;;;4976059;28;20512;-69
2023/07/29 12:51:34;;;;;;;4.00;3.03;;;27.70;1.00;;;;;;4974680;28;20218;-69